Latest Weather Observations for South Channel Island

IDV60901

Issued at 4:51 pm EST Sunday 11 April 2021 (issued every 10 minutes, with the page automatically refreshed every 10 minutes)

About weather observations | Map of Melbourne area stations | Latest observations for Melbourne area | Other Formats
Station Details ID: 086344 Name: SOUTH CHANNEL ISLAND Lat: -38.31 Lon: 144.80 Height: 9.0 m
Data from the previous 72 hours. | See also: Recent months at South Channel Island
Date/Time
EST
Temp
°C
App
Temp
°C
Dew
Point
°C
Rel
Hum
%
Delta-T
°C
Wind Press
QNH
hPa
Press
MSL
hPa
Rain since
9am
mm
Dir  Spd
km/h
Gust
km/h
Spd
kts
Gust
kts
11/04:30pm - - - - - SSW 57 70 31 38 - - -
11/04:00pm - - - - - SW 50 65 27 35 - - -
11/03:30pm - - - - - SW 57 74 31 40 - - -
11/03:00pm - - - - - SW 61 74 33 40 - - -
11/02:30pm - - - - - SW 59 76 32 41 - - -
11/02:00pm - - - - - SW 56 70 30 38 - - -
11/01:45pm - - - - - SW 57 76 31 41 - - -
11/01:30pm - - - - - SW 57 72 31 39 - - -
11/01:00pm - - - - - SW 56 69 30 37 - - -
11/12:53pm - - - - - SW 63 80 34 43 - - -
11/12:47pm - - - - - SW 63 80 34 43 - - -
11/12:32pm - - - - - SW 50 69 27 37 - - -
11/12:30pm - - - - - SW 48 59 26 32 - - -
11/12:08pm - - - - - SSW 52 74 28 40 - - -
11/12:00pm - - - - - SSW 54 67 29 36 - - -
11/11:44am - - - - - SW 50 67 27 36 - - -
11/11:40am - - - - - SW 52 70 28 38 - - -
11/11:30am - - - - - SW 63 83 34 45 - - -
11/11:18am - - - - - SW 54 78 29 42 - - -
11/11:00am - - - - - SW 57 74 31 40 - - -
11/10:39am - - - - - SSW 57 82 31 44 - - -
11/10:30am - - - - - SSW 65 76 35 41 - - -
11/10:17am - - - - - SW 54 67 29 36 - - -
11/10:03am - - - - - SW 61 80 33 43 - - -
11/10:00am - - - - - SW 63 80 34 43 - - -
11/09:30am - - - - - SW 56 83 30 45 - - -
11/09:18am - - - - - SW 50 74 27 40 - - -
11/09:15am - - - - - SW 48 67 26 36 - - -
11/09:04am - - - - - SSW 46 80 25 43 - - -
11/09:00am - - - - - SSW 35 59 19 32 - - -
11/08:58am - - - - - SSW 35 52 19 28 - - -
11/08:51am - - - - - SSW 43 57 23 31 - - -
11/08:36am - - - - - SSW 56 80 30 43 - - -
11/08:30am - - - - - SSW 50 59 27 32 - - -
11/08:17am - - - - - SW 63 82 34 44 - - -
11/08:10am - - - - - SW 61 82 33 44 - - -
11/08:05am - - - - - SSW 52 76 28 41 - - -
11/08:00am - - - - - SSW 54 69 29 37 - - -
11/07:32am - - - - - SW 61 80 33 43 - - -
11/07:30am - - - - - SW 69 83 37 45 - - -
11/07:18am - - - - - SSW 59 87 32 47 - - -
11/07:00am - - - - - SW 52 67 28 36 - - -
11/06:45am - - - - - SW 61 80 33 43 - - -
11/06:39am - - - - - SW 52 80 28 43 - - -
11/06:37am - - - - - SSW 48 74 26 40 - - -
11/06:30am - - - - - SSW 50 61 27 33 - - -
11/06:16am - - - - - SSW 50 61 27 33 - - -
11/06:00am - - - - - SSW 65 91 35 49 - - -
11/05:54am - - - - - SSW 56 91 30 49 - - -
11/05:52am - - - - - SSW 50 91 27 49 - - -
11/05:51am - - - - - SSW 48 91 26 49 - - -
11/05:30am - - - - - SW 39 61 21 33 - - -
11/05:28am - - - - - SW 37 57 20 31 - - -
11/05:12am - - - - - SW 54 78 29 42 - - -
11/05:00am - - - - - SW 63 93 34 50 - - -
11/04:57am - - - - - SW 61 89 33 48 - - -
11/04:45am - - - - - SW 59 72 32 39 - - -
11/04:30am - - - - - SW 46 59 25 32 - - -
11/04:00am - - - - - SW 54 72 29 39 - - -
11/03:44am - - - - - SW 52 72 28 39 - - -
11/03:30am - - - - - SW 44 80 24 43 - - -
11/03:25am - - - - - WSW 35 80 19 43 - - -
11/03:21am - - - - - W 32 48 17 26 - - -
11/03:00am - - - - - W 46 78 25 42 - - -
11/02:56am - - - - - W 46 78 25 42 - - -
11/02:31am - - - - - WSW 44 56 24 30 - - -
11/02:30am - - - - - SW 43 56 23 30 - - -
11/02:13am - - - - - WSW 54 72 29 39 - - -
11/02:04am - - - - - W 44 72 24 39 - - -
11/02:03am - - - - - W 43 69 23 37 - - -
11/02:00am - - - - - W 43 52 23 28 - - -
11/01:30am - - - - - W 37 52 20 28 - - -
11/01:27am - - - - - W 32 50 17 27 - - -
11/01:13am - - - - - WSW 37 44 20 24 - - -
11/01:00am - - - - - WSW 46 56 25 30 - - -
11/12:42am - - - - - WSW 54 76 29 41 - - -
11/12:37am - - - - - WSW 46 70 25 38 - - -
11/12:35am - - - - - WSW 43 61 23 33 - - -
11/12:30am - - - - - W 44 59 24 32 - - -
11/12:21am - - - - - WSW 54 70 29 38 - - -
11/12:14am - - - - - W 43 70 23 38 - - -
11/12:12am - - - - - W 39 69 21 37 - - -
11/12:00am - - - - - W 35 48 19 26 - - -
 
Date/Time
EST
Temp
°C
App
Temp
°C
Dew
Point
°C
Rel
Hum
%
Delta-T
°C
Wind Press
QNH
hPa
Press
MSL
hPa
Rain since
9am
mm
Dir  Spd
km/h
Gust
km/h
Spd
kts
Gust
kts
10/11:48pm - - - - - SW 54 78 29 42 - - -
10/11:44pm - - - - - SW 52 74 28 40 - - -
10/11:41pm - - - - - WSW 52 67 28 36 - - -
10/11:30pm - - - - - W 48 54 26 29 - - -
10/11:06pm - - - - - W 46 59 25 32 - - -
10/11:00pm - - - - - WSW 44 52 24 28 - - -
10/10:40pm - - - - - WSW 33 57 18 31 - - -
10/10:30pm - - - - - WSW 43 57 23 31 - - -
10/10:17pm - - - - - W 52 74 28 40 - - -
10/10:00pm - - - - - W 48 57 26 31 - - -
10/09:30pm - - - - - WNW 48 56 26 30 - - -
10/09:00pm - - - - - W 41 50 22 27 - - -
10/08:58pm - - - - - W 39 50 21 27 - - -
10/08:30pm - - - - - SW 50 61 27 33 - - -
10/08:00pm - - - - - WSW 41 48 22 26 - - -
10/07:30pm - - - - - WSW 39 48 21 26 - - -
10/07:14pm - - - - - WSW 50 59 27 32 - - -
10/07:00pm - - - - - WSW 52 89 28 48 - - -
10/06:59pm - - - - - WSW 50 89 27 48 - - -
10/06:58pm - - - - - W 46 89 25 48 - - -
10/06:30pm - - - - - W 52 65 28 35 - - -
10/06:00pm - - - - - W 52 63 28 34 - - -
10/05:47pm - - - - - WSW 63 82 34 44 - - -
10/05:39pm - - - - - WSW 63 83 34 45 - - -
10/05:34pm - - - - - WSW 54 78 29 42 - - -
10/05:30pm - - - - - WSW 52 61 28 33 - - -
10/05:21pm - - - - - WSW 59 78 32 42 - - -
10/05:11pm - - - - - WSW 56 76 30 41 - - -
10/05:06pm - - - - - WSW 46 65 25 35 - - -
10/05:00pm - - - - - WSW 43 52 23 28 - - -
10/04:30pm - - - - - WSW 54 74 29 40 - - -
10/04:28pm - - - - - WSW 52 70 28 38 - - -
10/04:00pm - - - - - WSW 52 63 28 34 - - -
10/03:33pm - - - - - WSW 59 78 32 42 - - -
10/03:30pm - - - - - WSW 65 80 35 43 - - -
10/03:12pm - - - - - WSW 48 78 26 42 - - -
10/03:10pm - - - - - WSW 43 61 23 33 - - -
10/03:00pm - - - - - WSW 44 61 24 33 - - -
10/02:56pm - - - - - WSW 52 67 28 36 - - -
10/02:30pm - - - - - SW 61 74 33 40 - - -
10/02:00pm - - - - - SW 57 70 31 38 - - -
10/01:30pm - - - - - SW 56 65 30 35 - - -
10/01:19pm - - - - - SW 50 72 27 39 - - -
10/01:00pm - - - - - SW 57 69 31 37 - - -
10/12:52pm - - - - - SW 50 69 27 37 - - -
10/12:30pm - - - - - SW 54 61 29 33 - - -
10/12:00pm - - - - - WSW 54 70 29 38 - - -
10/11:30am - - - - - WSW 56 65 30 35 - - -
10/11:00am - - - - - WSW 56 65 30 35 - - -
10/10:30am - - - - - W 46 56 25 30 - - -
10/10:00am - - - - - W 50 57 27 31 - - -
10/09:30am - - - - - WNW 43 50 23 27 - - -
10/09:00am - - - - - WNW 43 54 23 29 - - -
10/08:30am - - - - - WNW 43 50 23 27 - - -
10/08:00am - - - - - WNW 39 50 21 27 - - -
10/07:30am - - - - - WNW 41 54 22 29 - - -
10/07:00am - - - - - WNW 41 50 22 27 - - -
10/06:30am - - - - - WNW 43 52 23 28 - - -
10/06:00am - - - - - WNW 41 52 22 28 - - -
10/05:30am - - - - - WNW 37 41 20 22 - - -
10/05:00am - - - - - WNW 33 41 18 22 - - -
10/04:30am - - - - - WNW 39 48 21 26 - - -
10/04:00am - - - - - WNW 41 48 22 26 - - -
10/03:30am - - - - - W 35 46 19 25 - - -
10/03:00am - - - - - WNW 32 35 17 19 - - -
10/02:30am - - - - - WNW 30 35 16 19 - - -
10/02:00am - - - - - WNW 32 35 17 19 - - -
10/01:30am - - - - - W 32 37 17 20 - - -
10/01:00am - - - - - W 32 39 17 21 - - -
10/12:30am - - - - - W 32 39 17 21 - - -
10/12:00am - - - - - WNW 32 37 17 20 - - -
 
Date/Time
EST
Temp
°C
App
Temp
°C
Dew
Point
°C
Rel
Hum
%
Delta-T
°C
Wind Press
QNH
hPa
Press
MSL
hPa
Rain since
9am
mm
Dir  Spd
km/h
Gust
km/h
Spd
kts
Gust
kts
09/11:30pm - - - - - W 32 35 17 19 - - -
09/11:00pm - - - - - W 30 33 16 18 - - -
09/10:30pm - - - - - W 28 32 15 17 - - -
09/10:00pm - - - - - W 24 30 13 16 - - -
09/09:30pm - - - - - WSW 26 32 14 17 - - -
09/09:00pm - - - - - SW 22 30 12 16 - - -
09/08:30pm - - - - - SW 24 32 13 17 - - -
09/08:00pm - - - - - SW 30 35 16 19 - - -
09/07:30pm - - - - - SW 24 30 13 16 - - -
09/07:00pm - - - - - SSW 26 33 14 18 - - -
09/06:30pm - - - - - SW 26 32 14 17 - - -
09/06:00pm - - - - - SW 30 37 16 20 - - -
09/05:30pm - - - - - SSW 30 35 16 19 - - -
09/05:00pm - - - - - SW 30 35 16 19 - - -
09/04:30pm - - - - - SSW 35 44 19 24 - - -
09/04:00pm - - - - - SSW 33 41 18 22 - - -
09/03:30pm - - - - - SW 35 41 19 22 - - -
09/03:00pm - - - - - SSW 32 41 17 22 - - -
09/02:30pm - - - - - SSW 33 41 18 22 - - -
09/02:00pm - - - - - SSW 33 43 18 23 - - -
09/01:30pm - - - - - SSW 35 43 19 23 - - -
09/01:00pm - - - - - SSW 37 44 20 24 - - -
09/12:30pm - - - - - SSW 39 48 21 26 - - -
09/12:00pm - - - - - SW 32 35 17 19 - - -
09/11:30am - - - - - SW 37 43 20 23 - - -
09/11:00am - - - - - SSW 39 44 21 24 - - -
09/10:30am - - - - - SSW 43 52 23 28 - - -
09/10:00am - - - - - SW 41 50 22 27 - - -
09/09:30am - - - - - WSW 33 43 18 23 - - -
09/09:14am - - - - - W 33 54 18 29 - - -
09/09:13am - - - - - W 32 50 17 27 - - -
09/09:00am - - - - - WNW 32 39 17 21 - - -
09/08:30am - - - - - WSW 35 43 19 23 - - -
09/08:00am - - - - - SW 48 67 26 36 - - -
09/07:54am - - - - - WSW 39 67 21 36 - - -
09/07:53am - - - - - WSW 37 54 20 29 - - -
09/07:30am - - - - - WSW 37 44 20 24 - - -
09/07:00am - - - - - SW 41 48 22 26 - - -
09/06:30am - - - - - WSW 46 54 25 29 - - -
09/06:00am - - - - - SW 41 50 22 27 - - -
09/05:30am - - - - - SW 50 59 27 32 - - -
09/05:00am - - - - - SW 54 63 29 34 - - -
09/04:30am - - - - - SW 50 57 27 31 - - -
09/04:00am - - - - - SW 44 57 24 31 - - -
09/03:30am - - - - - SW 46 54 25 29 - - -
09/03:00am - - - - - SW 43 50 23 27 - - -
09/02:30am - - - - - SW 39 56 21 30 - - -
09/02:28am - - - - - SW 37 56 20 30 - - -
09/02:00am - - - - - SW 43 52 23 28 - - -
09/01:30am - - - - - SW 39 46 21 25 - - -
09/01:03am - - - - - WSW 44 56 24 30 - - -
09/01:00am - - - - - W 43 50 23 27 - - -
09/12:30am - - - - - W 48 54 26 29 - - -
09/12:18am - - - - - W 41 54 22 29 - - -
09/12:00am - - - - - W 32 35 17 19 - - -
 
Date/Time
EST
Temp
°C
App
Temp
°C
Dew
Point
°C
Rel
Hum
%
Delta-T
°C
Wind Press
QNH
hPa
Press
MSL
hPa
Rain since
9am
mm
Dir  Spd
km/h
Gust
km/h
Spd
kts
Gust
kts
08/11:30pm - - - - - W 28 32 15 17 - - -
08/11:00pm - - - - - WNW 26 30 14 16 - - -
08/10:30pm - - - - - WSW 11 15 6 8 - - -
08/10:00pm - - - - - SW 13 15 7 8 - - -
08/09:30pm - - - - - SSW 17 20 9 11 - - -
08/09:00pm - - - - - SSW 17 19 9 10 - - -
08/08:30pm - - - - - SSW 20 26 11 14 - - -
08/08:00pm - - - - - SSW 20 30 11 16 - - -
08/07:30pm - - - - - SSW 32 35 17 19 - - -
08/07:00pm - - - - - S 32 37 17 20 - - -
08/06:30pm - - - - - SW 26 32 14 17 - - -
08/06:00pm - - - - - NNW 22 26 12 14 - - -
08/05:30pm - - - - - NW 26 28 14 15 - - -
08/05:00pm - - - - - NW 28 32 15 17 - - -

Latest Capital City Observations: Canberra | Sydney | Melbourne | Brisbane | Adelaide | Perth | Hobart | Darwin

Other formats

Comma delimited format used in spreadsheet applications
http://www.bom.gov.au/fwo/IDV60901/IDV60901.94853.axf

JavaScript Object Notation format (JSON) in row-major order
http://www.bom.gov.au/fwo/IDV60901/IDV60901.94853.json

Data quality

Most of these data are generated automatically and are frequently updated. Quality checks on data are not normally performed. It is possible for incorrect values to appear. Refer to information at About Latest Weather Observations and please check the disclaimer before using these data.